sensor_id;sensor_type;location;lat;lon;timestamp;pressure;altitude;pressure_sealevel;temperature;humidity
26178;BME280;13924;47.670;10.310;2022-11-15T00:02:59;93180;;;5.5;100.0
26178;BME280;13924;47.670;10.310;2022-11-15T00:08:09;93170;;;5.7;100.0
26178;BME280;13924;47.670;10.310;2022-11-15T00:18:42;93140;;;6.0;100.0
26178;BME280;13924;47.670;10.310;2022-11-15T00:23:54;93150;;;5.6;100.0
26178;BME280;13924;47.670;10.310;2022-11-15T00:39:47;93170;;;5.1;100.0
26178;BME280;13924;47.670;10.310;2022-11-15T00:50:19;93200;;;4.9;100.0
26178;BME280;13924;47.670;10.310;2022-11-15T00:55:31;93210;;;4.8;100.0
26178;BME280;13924;47.670;10.310;2022-11-15T01:06:10;93220;;;4.7;100.0
26178;BME280;13924;47.670;10.310;2022-11-15T01:11:18;93220;;;4.7;100.0
26178;BME280;13924;47.670;10.310;2022-11-15T01:32:32;93200;;;4.4;100.0
26178;BME280;13924;47.670;10.310;2022-11-15T01:48:30;93230;;;4.1;100.0
26178;BME280;13924;47.670;10.310;2022-11-15T01:53:39;93170;;;4.2;100.0
26178;BME280;13924;47.670;10.310;2022-11-15T01:58:47;93160;;;4.2;100.0
26178;BME280;13924;47.670;10.310;2022-11-15T02:20:22;93150;;;4.1;100.0
26178;BME280;13924;47.670;10.310;2022-11-15T02:25:35;93140;;;3.8;100.0
26178;BME280;13924;47.670;10.310;2022-11-15T02:30:32;93200;;;3.6;100.0
26178;BME280;13924;47.670;10.310;2022-11-15T02:35:41;93230;;;3.4;100.0
26178;BME280;13924;47.670;10.310;2022-11-15T02:40:57;93210;;;3.6;100.0
26178;BME280;13924;47.670;10.310;2022-11-15T02:46:03;93180;;;3.7;100.0
26178;BME280;13924;47.670;10.310;2022-11-15T02:51:12;93170;;;3.8;100.0
26178;BME280;13924;47.670;10.310;2022-11-15T02:56:18;93150;;;3.8;100.0
26178;BME280;13924;47.670;10.310;2022-11-15T03:06:55;93180;;;3.6;100.0
26178;BME280;13924;47.670;10.310;2022-11-15T03:12:08;93160;;;3.8;100.0
26178;BME280;13924;47.670;10.310;2022-11-15T03:17:21;93110;;;3.8;100.0
26178;BME280;13924;47.670;10.310;2022-11-15T03:22:25;93100;;;3.8;100.0
26178;BME280;13924;47.670;10.310;2022-11-15T03:32:58;93130;;;3.6;100.0
26178;BME280;13924;47.670;10.310;2022-11-15T03:48:53;93150;;;3.3;100.0
26178;BME280;13924;47.670;10.310;2022-11-15T04:04:44;93140;;;3.3;100.0
26178;BME280;13924;47.670;10.310;2022-11-15T04:15:18;93110;;;3.4;100.0
26178;BME280;13924;47.670;10.310;2022-11-15T04:20:35;93110;;;3.4;100.0
26178;BME280;13924;47.670;10.310;2022-11-15T04:25:52;93110;;;3.4;100.0
26178;BME280;13924;47.670;10.310;2022-11-15T04:31:03;93150;;;3.0;100.0
26178;BME280;13924;47.670;10.310;2022-11-15T04:36:15;93160;;;2.9;100.0
26178;BME280;13924;47.670;10.310;2022-11-15T04:41:24;93180;;;3.0;100.0
26178;BME280;13924;47.670;10.310;2022-11-15T04:46:35;93180;;;3.0;100.0
26178;BME280;13924;47.670;10.310;2022-11-15T04:57:11;93150;;;3.1;100.0
26178;BME280;13924;47.670;10.310;2022-11-15T05:02:22;93220;;;2.8;100.0
26178;BME280;13924;47.670;10.310;2022-11-15T05:07:35;93220;;;2.8;100.0
26178;BME280;13924;47.670;10.310;2022-11-15T05:12:46;93160;;;2.8;100.0
26178;BME280;13924;47.670;10.310;2022-11-15T05:18:00;93150;;;2.9;100.0
26178;BME280;13924;47.670;10.310;2022-11-15T05:23:09;93120;;;2.9;100.0
26178;BME280;13924;47.670;10.310;2022-11-15T05:28:20;93140;;;2.8;100.0
26178;BME280;13924;47.670;10.310;2022-11-15T05:38:53;93150;;;2.6;100.0
26178;BME280;13924;47.670;10.310;2022-11-15T05:49:31;93090;;;3.0;100.0
26178;BME280;13924;47.670;10.310;2022-11-15T05:54:39;93060;;;2.9;100.0
26178;BME280;13924;47.670;10.310;2022-11-15T05:59:50;93120;;;2.6;100.0
26178;BME280;13924;47.670;10.310;2022-11-15T06:05:01;93170;;;2.5;100.0
26178;BME280;13924;47.670;10.310;2022-11-15T06:10:11;93200;;;2.5;100.0
26178;BME280;13924;47.670;10.310;2022-11-15T06:15:22;93220;;;2.5;100.0
26178;BME280;13924;47.670;10.310;2022-11-15T06:20:34;93190;;;2.8;100.0
26178;BME280;13924;47.670;10.310;2022-11-15T06:25:46;93080;;;3.0;100.0
26178;BME280;13924;47.670;10.310;2022-11-15T06:31:02;93040;;;2.9;100.0
26178;BME280;13924;47.670;10.310;2022-11-15T06:36:13;93040;;;2.9;100.0
26178;BME280;13924;47.670;10.310;2022-11-15T06:41:23;92990;;;3.2;100.0
26178;BME280;13924;47.670;10.310;2022-11-15T06:46:35;92970;;;3.3;100.0
26178;BME280;13924;47.670;10.310;2022-11-15T06:51:50;92970;;;3.3;100.0
26178;BME280;13924;47.670;10.310;2022-11-15T07:02:25;92950;;;3.3;100.0
26178;BME280;13924;47.670;10.310;2022-11-15T07:07:37;92960;;;3.2;100.0
26178;BME280;13924;47.670;10.310;2022-11-15T07:18:15;92960;;;3.2;100.0
26178;BME280;13924;47.670;10.310;2022-11-15T07:23:30;92960;;;3.2;100.0
26178;BME280;13924;47.670;10.310;2022-11-15T07:28:42;92970;;;3.4;100.0
26178;BME280;13924;47.670;10.310;2022-11-15T07:33:54;93010;;;3.3;100.0
26178;BME280;13924;47.670;10.310;2022-11-15T07:44:27;93040;;;3.3;100.0
26178;BME280;13924;47.670;10.310;2022-11-15T07:49:43;93040;;;3.3;100.0
26178;BME280;13924;47.670;10.310;2022-11-15T07:54:55;93060;;;3.2;100.0
26178;BME280;13924;47.670;10.310;2022-11-15T08:05:30;93060;;;3.2;100.0
26178;BME280;13924;47.670;10.310;2022-11-15T08:10:42;93040;;;3.9;100.0
26178;BME280;13924;47.670;10.310;2022-11-15T08:15:58;93020;;;3.9;100.0
26178;BME280;13924;47.670;10.310;2022-11-15T08:21:09;93020;;;3.9;100.0
26178;BME280;13924;47.670;10.310;2022-11-15T08:26:20;93050;;;4.4;100.0
26178;BME280;13924;47.670;10.310;2022-11-15T08:31:36;93050;;;4.4;100.0
26178;BME280;13924;47.670;10.310;2022-11-15T08:36:47;93020;;;4.6;100.0
26178;BME280;13924;47.670;10.310;2022-11-15T08:42:02;93020;;;4.6;100.0
26178;BME280;13924;47.670;10.310;2022-11-15T08:47:15;93000;;;4.8;100.0
26178;BME280;13924;47.670;10.310;2022-11-15T08:52:25;92980;;;5.1;100.0
26178;BME280;13924;47.670;10.310;2022-11-15T08:57:40;92980;;;5.1;100.0
26178;BME280;13924;47.670;10.310;2022-11-15T09:02:51;92890;;;5.5;100.0
26178;BME280;13924;47.670;10.310;2022-11-15T09:08:04;92860;;;5.7;100.0
26178;BME280;13924;47.670;10.310;2022-11-15T09:13:28;92840;;;6.2;100.0
26178;BME280;13924;47.670;10.310;2022-11-15T09:18:35;92800;;;6.7;100.0
26178;BME280;13924;47.670;10.310;2022-11-15T09:23:51;92790;;;7.6;100.0
26178;BME280;13924;47.670;10.310;2022-11-15T09:29:08;92790;;;7.6;100.0
26178;BME280;13924;47.670;10.310;2022-11-15T09:34:18;92780;;;9.2;100.0
26178;BME280;13924;47.670;10.310;2022-11-15T09:39:32;92760;;;9.6;100.0
26178;BME280;13924;47.670;10.310;2022-11-15T09:44:57;92750;;;10.8;100.0
26178;BME280;13924;47.670;10.310;2022-11-15T09:50:06;92750;;;12.0;100.0
26178;BME280;13924;47.670;10.310;2022-11-15T10:00:37;92730;;;12.4;100.0
26178;BME280;13924;47.670;10.310;2022-11-15T10:05:48;92720;;;12.9;100.0
26178;BME280;13924;47.670;10.310;2022-11-15T10:21:50;92710;;;13.5;100.0
26178;BME280;13924;47.670;10.310;2022-11-15T10:26:59;92710;;;13.5;100.0
26178;BME280;13924;47.670;10.310;2022-11-15T10:32:12;92690;;;14.8;100.0
26178;BME280;13924;47.670;10.310;2022-11-15T10:37:29;92680;;;15.0;100.0
26178;BME280;13924;47.670;10.310;2022-11-15T10:48:22;92660;;;15.3;100.0
26178;BME280;13924;47.670;10.310;2022-11-15T10:53:24;92650;;;16.4;96.4
26178;BME280;13924;47.670;10.310;2022-11-15T10:58:35;92650;;;16.4;96.4
26178;BME280;13924;47.670;10.310;2022-11-15T11:09:09;92640;;;17.9;75.0
26178;BME280;13924;47.670;10.310;2022-11-15T11:14:19;92640;;;18.5;83.9
26178;BME280;13924;47.670;10.310;2022-11-15T11:19:48;92630;;;18.7;72.0
26178;BME280;13924;47.670;10.310;2022-11-15T11:24:49;92610;;;19.1;69.3
26178;BME280;13924;47.670;10.310;2022-11-15T11:30:06;92620;;;19.2;62.3
26178;BME280;13924;47.670;10.310;2022-11-15T11:40:39;92620;;;19.6;52.8
26178;BME280;13924;47.670;10.310;2022-11-15T11:56:31;92620;;;19.9;49.4
26178;BME280;13924;47.670;10.310;2022-11-15T12:01:43;92620;;;19.9;49.4
26178;BME280;13924;47.670;10.310;2022-11-15T12:06:54;92610;;;18.0;60.1
26178;BME280;13924;47.670;10.310;2022-11-15T12:12:08;92620;;;16.9;68.1
26178;BME280;13924;47.670;10.310;2022-11-15T12:17:17;92620;;;17.2;73.5
26178;BME280;13924;47.670;10.310;2022-11-15T12:27:51;92630;;;15.2;92.2
26178;BME280;13924;47.670;10.310;2022-11-15T12:32:59;92620;;;14.6;100.0
26178;BME280;13924;47.670;10.310;2022-11-15T12:38:09;92630;;;13.3;100.0
26178;BME280;13924;47.670;10.310;2022-11-15T12:43:48;92620;;;13.4;100.0
26178;BME280;13924;47.670;10.310;2022-11-15T12:48:53;92630;;;14.2;100.0
26178;BME280;13924;47.670;10.310;2022-11-15T12:53:53;92620;;;15.3;95.2
26178;BME280;13924;47.670;10.310;2022-11-15T12:59:01;92630;;;14.6;100.0
26178;BME280;13924;47.670;10.310;2022-11-15T13:04:21;92620;;;13.5;100.0
26178;BME280;13924;47.670;10.310;2022-11-15T13:26:09;92630;;;15.5;100.0
26178;BME280;13924;47.670;10.310;2022-11-15T13:30:53;92640;;;13.4;100.0
26178;BME280;13924;47.670;10.310;2022-11-15T13:36:03;92630;;;12.8;100.0
26178;BME280;13924;47.670;10.310;2022-11-15T13:57:23;92630;;;12.8;100.0
26178;BME280;13924;47.670;10.310;2022-11-15T14:13:29;92610;;;11.6;100.0
26178;BME280;13924;47.670;10.310;2022-11-15T14:29:27;92600;;;11.6;100.0
26178;BME280;13924;47.670;10.310;2022-11-15T14:39:42;92590;;;11.3;100.0
26178;BME280;13924;47.670;10.310;2022-11-15T14:44:58;92590;;;11.3;100.0
26178;BME280;13924;47.670;10.310;2022-11-15T14:50:12;92570;;;11.0;100.0
26178;BME280;13924;47.670;10.310;2022-11-15T15:00:43;92560;;;10.7;100.0
26178;BME280;13924;47.670;10.310;2022-11-15T15:05:59;92560;;;10.7;100.0
26178;BME280;13924;47.670;10.310;2022-11-15T15:11:14;92540;;;10.5;100.0
26178;BME280;13924;47.670;10.310;2022-11-15T15:16:28;92540;;;10.5;100.0
26178;BME280;13924;47.670;10.310;2022-11-15T15:21:38;92530;;;10.3;100.0
26178;BME280;13924;47.670;10.310;2022-11-15T15:32:11;92510;;;10.0;100.0
26178;BME280;13924;47.670;10.310;2022-11-15T15:37:25;92500;;;9.9;100.0
26178;BME280;13924;47.670;10.310;2022-11-15T15:42:39;92500;;;9.9;100.0
26178;BME280;13924;47.670;10.310;2022-11-15T15:47:53;92500;;;9.9;100.0
26178;BME280;13924;47.670;10.310;2022-11-15T15:53:06;92480;;;9.9;100.0
26178;BME280;13924;47.670;10.310;2022-11-15T16:03:42;92480;;;9.9;100.0
26178;BME280;13924;47.670;10.310;2022-11-15T16:08:53;92470;;;9.7;100.0
26178;BME280;13924;47.670;10.310;2022-11-15T16:14:09;92470;;;9.7;100.0
26178;BME280;13924;47.670;10.310;2022-11-15T16:19:21;92450;;;9.5;100.0
26178;BME280;13924;47.670;10.310;2022-11-15T16:40:37;92450;;;9.3;100.0
26178;BME280;13924;47.670;10.310;2022-11-15T16:51:09;92440;;;9.2;100.0
26178;BME280;13924;47.670;10.310;2022-11-15T16:56:23;92450;;;9.2;100.0
26178;BME280;13924;47.670;10.310;2022-11-15T17:01:38;92450;;;9.2;100.0
26178;BME280;13924;47.670;10.310;2022-11-15T17:06:55;92450;;;9.2;100.0
26178;BME280;13924;47.670;10.310;2022-11-15T17:12:10;92450;;;9.2;100.0
26178;BME280;13924;47.670;10.310;2022-11-15T17:17:24;92450;;;8.9;100.0
26178;BME280;13924;47.670;10.310;2022-11-15T17:22:38;92450;;;8.9;100.0
26178;BME280;13924;47.670;10.310;2022-11-15T17:27:49;92450;;;8.9;100.0
26178;BME280;13924;47.670;10.310;2022-11-15T17:33:01;92440;;;8.9;100.0
26178;BME280;13924;47.670;10.310;2022-11-15T17:38:17;92440;;;8.9;100.0
26178;BME280;13924;47.670;10.310;2022-11-15T17:43:33;92430;;;8.9;100.0
26178;BME280;13924;47.670;10.310;2022-11-15T17:48:47;92430;;;8.9;100.0
26178;BME280;13924;47.670;10.310;2022-11-15T17:53:57;92440;;;8.8;100.0
26178;BME280;13924;47.670;10.310;2022-11-15T17:59:16;92440;;;8.8;100.0
26178;BME280;13924;47.670;10.310;2022-11-15T18:04:28;92460;;;8.7;100.0
26178;BME280;13924;47.670;10.310;2022-11-15T18:09:44;92460;;;8.7;100.0
26178;BME280;13924;47.670;10.310;2022-11-15T18:15:01;92460;;;8.7;100.0
26178;BME280;13924;47.670;10.310;2022-11-15T18:20:11;92480;;;8.5;100.0
26178;BME280;13924;47.670;10.310;2022-11-15T18:30:43;92450;;;8.4;100.0
26178;BME280;13924;47.670;10.310;2022-11-15T18:36:00;92450;;;8.4;100.0
26178;BME280;13924;47.670;10.310;2022-11-15T18:41:16;92450;;;8.4;100.0
26178;BME280;13924;47.670;10.310;2022-11-15T18:46:29;92440;;;8.4;100.0
26178;BME280;13924;47.670;10.310;2022-11-15T18:51:41;92440;;;8.4;100.0
26178;BME280;13924;47.670;10.310;2022-11-15T18:56:55;92410;;;8.4;100.0
26178;BME280;13924;47.670;10.310;2022-11-15T19:02:11;92410;;;8.4;100.0
26178;BME280;13924;47.670;10.310;2022-11-15T19:07:25;92390;;;8.4;100.0
26178;BME280;13924;47.670;10.310;2022-11-15T19:12:36;92360;;;8.5;100.0
26178;BME280;13924;47.670;10.310;2022-11-15T19:17:50;92360;;;8.5;100.0
26178;BME280;13924;47.670;10.310;2022-11-15T19:23:08;92360;;;8.5;100.0
26178;BME280;13924;47.670;10.310;2022-11-15T19:28:24;92360;;;8.5;100.0
26178;BME280;13924;47.670;10.310;2022-11-15T19:33:37;92350;;;8.2;100.0
26178;BME280;13924;47.670;10.310;2022-11-15T19:44:13;92350;;;8.2;100.0
26178;BME280;13924;47.670;10.310;2022-11-15T19:54:47;92320;;;8.2;100.0
26178;BME280;13924;47.670;10.310;2022-11-15T20:10:44;92320;;;8.2;100.0
26178;BME280;13924;47.670;10.310;2022-11-15T20:15:56;92280;;;8.3;100.0
26178;BME280;13924;47.670;10.310;2022-11-15T20:21:05;92270;;;8.3;100.0
26178;BME280;13924;47.670;10.310;2022-11-15T20:31:42;92270;;;8.3;100.0
26178;BME280;13924;47.670;10.310;2022-11-15T20:36:56;92230;;;8.6;100.0
26178;BME280;13924;47.670;10.310;2022-11-15T20:42:08;92210;;;8.6;100.0
26178;BME280;13924;47.670;10.310;2022-11-15T20:52:42;92200;;;8.6;100.0
26178;BME280;13924;47.670;10.310;2022-11-15T20:57:55;92200;;;8.6;100.0
26178;BME280;13924;47.670;10.310;2022-11-15T21:03:08;92270;;;8.1;100.0
26178;BME280;13924;47.670;10.310;2022-11-15T21:08:18;92290;;;7.9;100.0
26178;BME280;13924;47.670;10.310;2022-11-15T21:13:29;92260;;;7.9;100.0
26178;BME280;13924;47.670;10.310;2022-11-15T21:24:02;92240;;;7.8;100.0
26178;BME280;13924;47.670;10.310;2022-11-15T21:29:17;92240;;;7.8;100.0
26178;BME280;13924;47.670;10.310;2022-11-15T21:39:52;92220;;;7.8;100.0
26178;BME280;13924;47.670;10.310;2022-11-15T21:50:26;92250;;;7.6;100.0
26178;BME280;13924;47.670;10.310;2022-11-15T22:01:00;92220;;;7.7;100.0
26178;BME280;13924;47.670;10.310;2022-11-15T22:06:12;92200;;;7.8;100.0
26178;BME280;13924;47.670;10.310;2022-11-15T22:11:24;92180;;;7.7;100.0
26178;BME280;13924;47.670;10.310;2022-11-15T22:21:58;92170;;;7.8;100.0
26178;BME280;13924;47.670;10.310;2022-11-15T22:37:53;92160;;;7.8;100.0
26178;BME280;13924;47.670;10.310;2022-11-15T22:43:04;92140;;;7.8;100.0
26178;BME280;13924;47.670;10.310;2022-11-15T22:53:35;92120;;;7.8;100.0
26178;BME280;13924;47.670;10.310;2022-11-15T22:58:46;92110;;;7.8;100.0
26178;BME280;13924;47.670;10.310;2022-11-15T23:03:58;92110;;;7.8;100.0
26178;BME280;13924;47.670;10.310;2022-11-15T23:09:09;92070;;;7.9;100.0
26178;BME280;13924;47.670;10.310;2022-11-15T23:14:20;92040;;;8.1;100.0
26178;BME280;13924;47.670;10.310;2022-11-15T23:19:29;92030;;;8.1;100.0
26178;BME280;13924;47.670;10.310;2022-11-15T23:35:29;92060;;;7.9;100.0
26178;BME280;13924;47.670;10.310;2022-11-15T23:40:49;92090;;;7.8;100.0
26178;BME280;13924;47.670;10.310;2022-11-15T23:51:09;92070;;;7.7;100.0
26178;BME280;13924;47.670;10.310;2022-11-15T23:56:26;92070;;;7.7;100.0
